sensor_id;sensor_type;location;lat;lon;timestamp;P1;durP1;ratioP1;P2;durP2;ratioP2
73954;SDS011;62306;52.516;13.290;2022-08-19T00:00:28;18.75;;;13.32;;
73954;SDS011;62306;52.516;13.290;2022-08-19T00:02:56;16.35;;;12.25;;
73954;SDS011;62306;52.516;13.290;2022-08-19T00:05:23;14.88;;;13.30;;
73954;SDS011;62306;52.516;13.290;2022-08-19T00:07:50;15.20;;;12.45;;
73954;SDS011;62306;52.516;13.290;2022-08-19T00:10:17;14.90;;;13.20;;
73954;SDS011;62306;52.516;13.290;2022-08-19T00:12:45;16.33;;;13.68;;
73954;SDS011;62306;52.516;13.290;2022-08-19T00:15:14;17.80;;;13.85;;
73954;SDS011;62306;52.516;13.290;2022-08-19T00:17:43;18.73;;;13.60;;
73954;SDS011;62306;52.516;13.290;2022-08-19T00:20:12;15.65;;;13.48;;
73954;SDS011;62306;52.516;13.290;2022-08-19T00:22:42;18.08;;;12.75;;
73954;SDS011;62306;52.516;13.290;2022-08-19T00:25:10;16.40;;;12.98;;
73954;SDS011;62306;52.516;13.290;2022-08-19T00:27:37;14.98;;;13.10;;
73954;SDS011;62306;52.516;13.290;2022-08-19T00:30:05;14.73;;;12.85;;
73954;SDS011;62306;52.516;13.290;2022-08-19T00:32:35;14.63;;;13.02;;
73954;SDS011;62306;52.516;13.290;2022-08-19T00:35:04;13.90;;;12.32;;
73954;SDS011;62306;52.516;13.290;2022-08-19T00:37:32;13.50;;;12.20;;
73954;SDS011;62306;52.516;13.290;2022-08-19T00:40:00;19.80;;;14.18;;
73954;SDS011;62306;52.516;13.290;2022-08-19T00:42:28;15.55;;;13.45;;
73954;SDS011;62306;52.516;13.290;2022-08-19T00:44:55;14.00;;;12.15;;
73954;SDS011;62306;52.516;13.290;2022-08-19T00:47:22;16.17;;;12.85;;
73954;SDS011;62306;52.516;13.290;2022-08-19T00:49:52;14.00;;;12.13;;
73954;SDS011;62306;52.516;13.290;2022-08-19T00:52:23;13.82;;;12.07;;
73954;SDS011;62306;52.516;13.290;2022-08-19T00:54:54;14.00;;;12.48;;
73954;SDS011;62306;52.516;13.290;2022-08-19T00:57:22;14.07;;;12.38;;
73954;SDS011;62306;52.516;13.290;2022-08-19T00:59:54;14.45;;;12.50;;
73954;SDS011;62306;52.516;13.290;2022-08-19T01:02:22;16.17;;;14.40;;
73954;SDS011;62306;52.516;13.290;2022-08-19T01:04:51;14.70;;;12.80;;
73954;SDS011;62306;52.516;13.290;2022-08-19T01:07:18;16.85;;;14.70;;
73954;SDS011;62306;52.516;13.290;2022-08-19T01:09:45;17.48;;;13.35;;
73954;SDS011;62306;52.516;13.290;2022-08-19T01:12:12;16.20;;;12.27;;
73954;SDS011;62306;52.516;13.290;2022-08-19T01:14:40;14.10;;;12.70;;
73954;SDS011;62306;52.516;13.290;2022-08-19T01:17:08;16.63;;;14.18;;
73954;SDS011;62306;52.516;13.290;2022-08-19T01:19:38;14.85;;;13.35;;
73954;SDS011;62306;52.516;13.290;2022-08-19T01:22:10;17.30;;;14.23;;
73954;SDS011;62306;52.516;13.290;2022-08-19T01:24:43;18.90;;;14.20;;
73954;SDS011;62306;52.516;13.290;2022-08-19T01:27:10;18.80;;;14.50;;
73954;SDS011;62306;52.516;13.290;2022-08-19T01:29:38;17.83;;;14.27;;
73954;SDS011;62306;52.516;13.290;2022-08-19T01:32:07;18.65;;;15.48;;
73954;SDS011;62306;52.516;13.290;2022-08-19T01:34:35;19.05;;;14.65;;
73954;SDS011;62306;52.516;13.290;2022-08-19T01:37:05;23.08;;;15.27;;
73954;SDS011;62306;52.516;13.290;2022-08-19T01:39:36;20.88;;;15.50;;
73954;SDS011;62306;52.516;13.290;2022-08-19T01:42:06;18.58;;;15.00;;
73954;SDS011;62306;52.516;13.290;2022-08-19T01:44:36;17.88;;;14.45;;
73954;SDS011;62306;52.516;13.290;2022-08-19T01:47:03;20.75;;;15.95;;
73954;SDS011;62306;52.516;13.290;2022-08-19T01:49:31;16.90;;;15.05;;
73954;SDS011;62306;52.516;13.290;2022-08-19T01:51:58;23.30;;;15.10;;
73954;SDS011;62306;52.516;13.290;2022-08-19T01:54:27;19.95;;;14.82;;
73954;SDS011;62306;52.516;13.290;2022-08-19T01:56:55;28.38;;;17.05;;
73954;SDS011;62306;52.516;13.290;2022-08-19T01:59:28;21.67;;;16.58;;
73954;SDS011;62306;52.516;13.290;2022-08-19T02:01:55;31.38;;;17.17;;
73954;SDS011;62306;52.516;13.290;2022-08-19T02:04:22;17.27;;;14.98;;
73954;SDS011;62306;52.516;13.290;2022-08-19T02:06:50;24.17;;;16.77;;
73954;SDS011;62306;52.516;13.290;2022-08-19T02:09:17;19.80;;;15.20;;
73954;SDS011;62306;52.516;13.290;2022-08-19T02:11:44;18.55;;;14.32;;
73954;SDS011;62306;52.516;13.290;2022-08-19T02:14:11;19.02;;;14.75;;
73954;SDS011;62306;52.516;13.290;2022-08-19T02:16:40;21.50;;;16.20;;
73954;SDS011;62306;52.516;13.290;2022-08-19T02:19:07;20.80;;;16.48;;
73954;SDS011;62306;52.516;13.290;2022-08-19T02:21:35;22.88;;;15.57;;
73954;SDS011;62306;52.516;13.290;2022-08-19T02:24:04;25.63;;;16.23;;
73954;SDS011;62306;52.516;13.290;2022-08-19T02:26:31;22.08;;;15.10;;
73954;SDS011;62306;52.516;13.290;2022-08-19T02:28:58;25.48;;;16.13;;
73954;SDS011;62306;52.516;13.290;2022-08-19T02:31:25;21.77;;;15.68;;
73954;SDS011;62306;52.516;13.290;2022-08-19T02:33:55;19.38;;;15.40;;
73954;SDS011;62306;52.516;13.290;2022-08-19T02:36:23;22.85;;;16.88;;
73954;SDS011;62306;52.516;13.290;2022-08-19T02:38:50;19.70;;;15.35;;
73954;SDS011;62306;52.516;13.290;2022-08-19T02:41:18;20.38;;;15.32;;
73954;SDS011;62306;52.516;13.290;2022-08-19T02:43:48;20.63;;;14.93;;
73954;SDS011;62306;52.516;13.290;2022-08-19T02:46:16;16.02;;;14.32;;
73954;SDS011;62306;52.516;13.290;2022-08-19T02:48:46;16.45;;;14.55;;
73954;SDS011;62306;52.516;13.290;2022-08-19T02:51:18;16.88;;;14.75;;
73954;SDS011;62306;52.516;13.290;2022-08-19T02:53:46;18.60;;;15.55;;
73954;SDS011;62306;52.516;13.290;2022-08-19T02:56:14;22.20;;;16.92;;
73954;SDS011;62306;52.516;13.290;2022-08-19T02:58:41;17.58;;;15.18;;
73954;SDS011;62306;52.516;13.290;2022-08-19T03:01:08;19.00;;;16.33;;
73954;SDS011;62306;52.516;13.290;2022-08-19T03:03:36;23.27;;;17.73;;
73954;SDS011;62306;52.516;13.290;2022-08-19T03:06:04;20.15;;;16.58;;
73954;SDS011;62306;52.516;13.290;2022-08-19T03:08:34;19.13;;;16.00;;
73954;SDS011;62306;52.516;13.290;2022-08-19T03:11:01;20.45;;;17.77;;
73954;SDS011;62306;52.516;13.290;2022-08-19T03:13:29;20.48;;;17.77;;
73954;SDS011;62306;52.516;13.290;2022-08-19T03:15:56;19.88;;;16.52;;
73954;SDS011;62306;52.516;13.290;2022-08-19T03:18:23;21.80;;;17.55;;
73954;SDS011;62306;52.516;13.290;2022-08-19T03:20:51;19.95;;;17.38;;
73954;SDS011;62306;52.516;13.290;2022-08-19T03:23:19;23.85;;;17.75;;
73954;SDS011;62306;52.516;13.290;2022-08-19T03:25:48;22.00;;;16.98;;
73954;SDS011;62306;52.516;13.290;2022-08-19T03:28:18;20.70;;;17.08;;
73954;SDS011;62306;52.516;13.290;2022-08-19T03:30:54;21.05;;;17.45;;
73954;SDS011;62306;52.516;13.290;2022-08-19T03:33:23;19.98;;;17.88;;
73954;SDS011;62306;52.516;13.290;2022-08-19T03:36:04;21.33;;;17.17;;
73954;SDS011;62306;52.516;13.290;2022-08-19T03:38:33;20.83;;;17.33;;
73954;SDS011;62306;52.516;13.290;2022-08-19T03:41:04;22.48;;;18.60;;
73954;SDS011;62306;52.516;13.290;2022-08-19T03:43:33;21.67;;;18.00;;
73954;SDS011;62306;52.516;13.290;2022-08-19T03:46:02;22.13;;;18.98;;
73954;SDS011;62306;52.516;13.290;2022-08-19T03:48:30;26.95;;;19.25;;
73954;SDS011;62306;52.516;13.290;2022-08-19T03:50:58;24.38;;;19.70;;
73954;SDS011;62306;52.516;13.290;2022-08-19T03:53:25;25.20;;;20.58;;
73954;SDS011;62306;52.516;13.290;2022-08-19T03:55:54;24.98;;;19.95;;
73954;SDS011;62306;52.516;13.290;2022-08-19T03:58:24;27.00;;;19.08;;
73954;SDS011;62306;52.516;13.290;2022-08-19T04:00:52;20.45;;;18.17;;
73954;SDS011;62306;52.516;13.290;2022-08-19T04:03:20;22.33;;;18.77;;
73954;SDS011;62306;52.516;13.290;2022-08-19T04:05:47;22.42;;;18.27;;
73954;SDS011;62306;52.516;13.290;2022-08-19T04:08:14;23.00;;;18.45;;
73954;SDS011;62306;52.516;13.290;2022-08-19T04:10:46;22.30;;;17.42;;
73954;SDS011;62306;52.516;13.290;2022-08-19T04:13:13;26.08;;;20.75;;
73954;SDS011;62306;52.516;13.290;2022-08-19T04:15:44;21.55;;;17.10;;
73954;SDS011;62306;52.516;13.290;2022-08-19T04:18:12;20.63;;;18.20;;
73954;SDS011;62306;52.516;13.290;2022-08-19T04:20:40;20.02;;;17.83;;
73954;SDS011;62306;52.516;13.290;2022-08-19T04:23:08;20.70;;;17.25;;
73954;SDS011;62306;52.516;13.290;2022-08-19T04:25:36;23.42;;;18.58;;
73954;SDS011;62306;52.516;13.290;2022-08-19T04:28:05;21.83;;;18.73;;
73954;SDS011;62306;52.516;13.290;2022-08-19T04:30:37;21.20;;;17.83;;
73954;SDS011;62306;52.516;13.290;2022-08-19T04:33:07;21.27;;;17.27;;
73954;SDS011;62306;52.516;13.290;2022-08-19T04:35:35;19.58;;;17.27;;
73954;SDS011;62306;52.516;13.290;2022-08-19T04:38:04;22.75;;;16.63;;
73954;SDS011;62306;52.516;13.290;2022-08-19T04:40:31;20.30;;;16.83;;
73954;SDS011;62306;52.516;13.290;2022-08-19T04:43:16;20.13;;;16.23;;
73954;SDS011;62306;52.516;13.290;2022-08-19T04:45:43;21.70;;;17.15;;
73954;SDS011;62306;52.516;13.290;2022-08-19T04:48:12;19.55;;;16.00;;
73954;SDS011;62306;52.516;13.290;2022-08-19T04:50:39;17.83;;;15.90;;
73954;SDS011;62306;52.516;13.290;2022-08-19T04:53:07;17.88;;;15.00;;
73954;SDS011;62306;52.516;13.290;2022-08-19T04:55:38;19.50;;;15.50;;
73954;SDS011;62306;52.516;13.290;2022-08-19T04:58:05;16.52;;;14.73;;
73954;SDS011;62306;52.516;13.290;2022-08-19T05:00:32;15.70;;;14.00;;
73954;SDS011;62306;52.516;13.290;2022-08-19T05:02:59;16.65;;;14.95;;
73954;SDS011;62306;52.516;13.290;2022-08-19T05:05:28;16.52;;;14.73;;
73954;SDS011;62306;52.516;13.290;2022-08-19T05:07:57;18.77;;;15.05;;
73954;SDS011;62306;52.516;13.290;2022-08-19T05:10:24;18.65;;;14.43;;
73954;SDS011;62306;52.516;13.290;2022-08-19T05:12:51;16.83;;;14.57;;
73954;SDS011;62306;52.516;13.290;2022-08-19T05:15:18;19.75;;;14.48;;
73954;SDS011;62306;52.516;13.290;2022-08-19T05:17:45;16.25;;;13.95;;
73954;SDS011;62306;52.516;13.290;2022-08-19T05:20:26;17.63;;;13.38;;
73954;SDS011;62306;52.516;13.290;2022-08-19T05:23:11;15.95;;;14.23;;
73954;SDS011;62306;52.516;13.290;2022-08-19T05:25:42;15.75;;;14.05;;
73954;SDS011;62306;52.516;13.290;2022-08-19T05:28:09;17.70;;;13.63;;
73954;SDS011;62306;52.516;13.290;2022-08-19T05:30:36;17.38;;;13.93;;
73954;SDS011;62306;52.516;13.290;2022-08-19T05:33:06;15.50;;;13.55;;
73954;SDS011;62306;52.516;13.290;2022-08-19T05:35:35;17.30;;;13.52;;
73954;SDS011;62306;52.516;13.290;2022-08-19T05:38:02;17.48;;;14.38;;
73954;SDS011;62306;52.516;13.290;2022-08-19T05:40:31;16.85;;;14.13;;
73954;SDS011;62306;52.516;13.290;2022-08-19T05:43:01;18.75;;;13.43;;
73954;SDS011;62306;52.516;13.290;2022-08-19T05:45:28;17.42;;;13.65;;
73954;SDS011;62306;52.516;13.290;2022-08-19T05:47:54;16.40;;;13.90;;
73954;SDS011;62306;52.516;13.290;2022-08-19T05:50:21;16.05;;;13.23;;
73954;SDS011;62306;52.516;13.290;2022-08-19T05:52:49;16.55;;;13.90;;
73954;SDS011;62306;52.516;13.290;2022-08-19T05:55:16;15.55;;;13.43;;
73954;SDS011;62306;52.516;13.290;2022-08-19T05:57:46;18.08;;;13.98;;
73954;SDS011;62306;52.516;13.290;2022-08-19T06:00:13;20.23;;;14.18;;
73954;SDS011;62306;52.516;13.290;2022-08-19T06:02:41;14.20;;;12.70;;
73954;SDS011;62306;52.516;13.290;2022-08-19T06:05:08;16.90;;;13.90;;
73954;SDS011;62306;52.516;13.290;2022-08-19T06:07:36;17.60;;;13.23;;
73954;SDS011;62306;52.516;13.290;2022-08-19T06:10:04;20.45;;;13.57;;
73954;SDS011;62306;52.516;13.290;2022-08-19T06:12:33;15.45;;;13.50;;
73954;SDS011;62306;52.516;13.290;2022-08-19T06:15:03;15.38;;;13.60;;
73954;SDS011;62306;52.516;13.290;2022-08-19T06:17:32;15.05;;;13.40;;
73954;SDS011;62306;52.516;13.290;2022-08-19T06:20:00;15.73;;;13.80;;
73954;SDS011;62306;52.516;13.290;2022-08-19T06:22:27;15.23;;;13.73;;
73954;SDS011;62306;52.516;13.290;2022-08-19T06:24:55;16.35;;;14.02;;
73954;SDS011;62306;52.516;13.290;2022-08-19T06:27:22;22.35;;;14.98;;
73954;SDS011;62306;52.516;13.290;2022-08-19T06:29:49;15.82;;;14.18;;
73954;SDS011;62306;52.516;13.290;2022-08-19T06:32:17;16.25;;;13.60;;
73954;SDS011;62306;52.516;13.290;2022-08-19T06:34:45;15.65;;;14.05;;
73954;SDS011;62306;52.516;13.290;2022-08-19T06:37:13;17.98;;;14.43;;
73954;SDS011;62306;52.516;13.290;2022-08-19T06:39:41;21.50;;;14.80;;
73954;SDS011;62306;52.516;13.290;2022-08-19T06:42:10;19.52;;;14.75;;
73954;SDS011;62306;52.516;13.290;2022-08-19T06:44:39;16.88;;;15.18;;
73954;SDS011;62306;52.516;13.290;2022-08-19T06:47:08;19.30;;;15.60;;
73954;SDS011;62306;52.516;13.290;2022-08-19T06:49:38;16.90;;;14.88;;
73954;SDS011;62306;52.516;13.290;2022-08-19T06:52:05;18.35;;;16.00;;
73954;SDS011;62306;52.516;13.290;2022-08-19T06:54:32;18.48;;;15.90;;
73954;SDS011;62306;52.516;13.290;2022-08-19T06:57:00;19.30;;;15.95;;
73954;SDS011;62306;52.516;13.290;2022-08-19T06:59:28;19.45;;;16.92;;
73954;SDS011;62306;52.516;13.290;2022-08-19T07:01:57;18.08;;;16.17;;
73954;SDS011;62306;52.516;13.290;2022-08-19T07:04:26;17.52;;;15.75;;
73954;SDS011;62306;52.516;13.290;2022-08-19T07:06:58;20.40;;;16.60;;
73954;SDS011;62306;52.516;13.290;2022-08-19T07:09:27;17.88;;;15.93;;
73954;SDS011;62306;52.516;13.290;2022-08-19T07:11:54;24.13;;;17.25;;
73954;SDS011;62306;52.516;13.290;2022-08-19T07:14:23;19.92;;;16.17;;
73954;SDS011;62306;52.516;13.290;2022-08-19T07:16:52;17.60;;;15.88;;
73954;SDS011;62306;52.516;13.290;2022-08-19T07:19:21;18.48;;;16.52;;
73954;SDS011;62306;52.516;13.290;2022-08-19T07:21:51;18.67;;;16.65;;
73954;SDS011;62306;52.516;13.290;2022-08-19T07:24:21;18.20;;;15.77;;
73954;SDS011;62306;52.516;13.290;2022-08-19T07:26:50;18.52;;;16.52;;
73954;SDS011;62306;52.516;13.290;2022-08-19T07:29:19;19.55;;;17.20;;
73954;SDS011;62306;52.516;13.290;2022-08-19T07:31:48;20.75;;;17.73;;
73954;SDS011;62306;52.516;13.290;2022-08-19T07:34:15;22.40;;;19.15;;
73954;SDS011;62306;52.516;13.290;2022-08-19T07:36:44;23.60;;;18.25;;
73954;SDS011;62306;52.516;13.290;2022-08-19T07:39:12;22.80;;;18.85;;
73954;SDS011;62306;52.516;13.290;2022-08-19T07:41:44;19.55;;;17.35;;
73954;SDS011;62306;52.516;13.290;2022-08-19T07:44:12;22.08;;;17.58;;
73954;SDS011;62306;52.516;13.290;2022-08-19T07:46:44;23.90;;;19.33;;
73954;SDS011;62306;52.516;13.290;2022-08-19T07:49:15;20.25;;;18.25;;
73954;SDS011;62306;52.516;13.290;2022-08-19T07:51:44;24.00;;;18.50;;
73954;SDS011;62306;52.516;13.290;2022-08-19T07:54:12;23.00;;;18.83;;
73954;SDS011;62306;52.516;13.290;2022-08-19T07:56:39;19.27;;;17.20;;
73954;SDS011;62306;52.516;13.290;2022-08-19T07:59:08;21.58;;;18.88;;
73954;SDS011;62306;52.516;13.290;2022-08-19T08:01:35;20.02;;;17.75;;
73954;SDS011;62306;52.516;13.290;2022-08-19T08:04:04;23.83;;;18.38;;
73954;SDS011;62306;52.516;13.290;2022-08-19T08:06:49;22.50;;;17.63;;
73954;SDS011;62306;52.516;13.290;2022-08-19T08:09:35;25.08;;;18.98;;
73954;SDS011;62306;52.516;13.290;2022-08-19T08:12:04;25.23;;;18.85;;
73954;SDS011;62306;52.516;13.290;2022-08-19T08:14:35;21.48;;;18.15;;
73954;SDS011;62306;52.516;13.290;2022-08-19T08:17:04;22.33;;;18.95;;
73954;SDS011;62306;52.516;13.290;2022-08-19T08:19:32;22.60;;;19.50;;
73954;SDS011;62306;52.516;13.290;2022-08-19T08:22:00;23.15;;;19.33;;
73954;SDS011;62306;52.516;13.290;2022-08-19T08:24:28;21.98;;;17.92;;
73954;SDS011;62306;52.516;13.290;2022-08-19T08:26:57;24.13;;;19.52;;
73954;SDS011;62306;52.516;13.290;2022-08-19T08:29:25;21.25;;;18.95;;
73954;SDS011;62306;52.516;13.290;2022-08-19T08:31:55;24.17;;;19.45;;
73954;SDS011;62306;52.516;13.290;2022-08-19T08:34:22;26.40;;;20.35;;
73954;SDS011;62306;52.516;13.290;2022-08-19T08:36:49;22.45;;;19.40;;
73954;SDS011;62306;52.516;13.290;2022-08-19T08:39:18;21.67;;;19.40;;
73954;SDS011;62306;52.516;13.290;2022-08-19T08:41:48;22.63;;;18.52;;
73954;SDS011;62306;52.516;13.290;2022-08-19T08:44:20;27.58;;;20.75;;
73954;SDS011;62306;52.516;13.290;2022-08-19T08:46:49;22.48;;;18.90;;
73954;SDS011;62306;52.516;13.290;2022-08-19T08:49:26;23.30;;;20.00;;
73954;SDS011;62306;52.516;13.290;2022-08-19T08:51:59;22.20;;;19.85;;
73954;SDS011;62306;52.516;13.290;2022-08-19T08:54:33;26.40;;;19.58;;
73954;SDS011;62306;52.516;13.290;2022-08-19T08:57:04;24.10;;;19.35;;
73954;SDS011;62306;52.516;13.290;2022-08-19T09:02:06;24.90;;;19.70;;
73954;SDS011;62306;52.516;13.290;2022-08-19T09:04:36;21.88;;;18.02;;
73954;SDS011;62306;52.516;13.290;2022-08-19T09:07:13;21.42;;;18.70;;
73954;SDS011;62306;52.516;13.290;2022-08-19T09:09:48;21.90;;;19.52;;
73954;SDS011;62306;52.516;13.290;2022-08-19T09:12:19;21.88;;;19.65;;
73954;SDS011;62306;52.516;13.290;2022-08-19T09:14:53;23.42;;;20.10;;
73954;SDS011;62306;52.516;13.290;2022-08-19T09:17:28;24.67;;;19.88;;
73954;SDS011;62306;52.516;13.290;2022-08-19T09:20:00;25.00;;;18.77;;
73954;SDS011;62306;52.516;13.290;2022-08-19T09:22:32;19.88;;;17.75;;
73954;SDS011;62306;52.516;13.290;2022-08-19T09:25:01;27.17;;;17.65;;
73954;SDS011;62306;52.516;13.290;2022-08-19T09:27:30;23.02;;;17.65;;
73954;SDS011;62306;52.516;13.290;2022-08-19T09:29:57;25.13;;;17.67;;
73954;SDS011;62306;52.516;13.290;2022-08-19T09:32:25;20.80;;;16.50;;
73954;SDS011;62306;52.516;13.290;2022-08-19T09:34:53;21.52;;;16.88;;
73954;SDS011;62306;52.516;13.290;2022-08-19T09:37:24;19.73;;;16.88;;
73954;SDS011;62306;52.516;13.290;2022-08-19T09:39:51;18.55;;;16.42;;
73954;SDS011;62306;52.516;13.290;2022-08-19T09:42:19;27.52;;;18.58;;
73954;SDS011;62306;52.516;13.290;2022-08-19T09:44:46;20.02;;;16.63;;
73954;SDS011;62306;52.516;13.290;2022-08-19T09:47:13;18.63;;;16.77;;
73954;SDS011;62306;52.516;13.290;2022-08-19T09:49:40;20.23;;;16.83;;
73954;SDS011;62306;52.516;13.290;2022-08-19T09:52:08;19.63;;;15.80;;
73954;SDS011;62306;52.516;13.290;2022-08-19T09:54:37;17.83;;;15.57;;
73954;SDS011;62306;52.516;13.290;2022-08-19T09:57:05;17.58;;;15.50;;
73954;SDS011;62306;52.516;13.290;2022-08-19T09:59:31;20.48;;;16.67;;
73954;SDS011;62306;52.516;13.290;2022-08-19T10:01:59;20.08;;;16.42;;
73954;SDS011;62306;52.516;13.290;2022-08-19T10:04:26;19.50;;;17.40;;
73954;SDS011;62306;52.516;13.290;2022-08-19T10:07:13;19.17;;;17.02;;
73954;SDS011;62306;52.516;13.290;2022-08-19T10:09:42;19.42;;;17.48;;
73954;SDS011;62306;52.516;13.290;2022-08-19T10:12:09;20.50;;;17.25;;
73954;SDS011;62306;52.516;13.290;2022-08-19T10:14:36;19.75;;;17.33;;
73954;SDS011;62306;52.516;13.290;2022-08-19T10:17:04;20.67;;;17.23;;
73954;SDS011;62306;52.516;13.290;2022-08-19T10:19:31;18.75;;;16.75;;
73954;SDS011;62306;52.516;13.290;2022-08-19T10:22:02;16.98;;;15.18;;
73954;SDS011;62306;52.516;13.290;2022-08-19T10:24:30;17.23;;;14.90;;
73954;SDS011;62306;52.516;13.290;2022-08-19T10:27:00;16.55;;;14.77;;
73954;SDS011;62306;52.516;13.290;2022-08-19T10:29:28;17.38;;;15.52;;
73954;SDS011;62306;52.516;13.290;2022-08-19T10:31:56;17.73;;;14.65;;
73954;SDS011;62306;52.516;13.290;2022-08-19T10:34:25;18.20;;;15.43;;
73954;SDS011;62306;52.516;13.290;2022-08-19T10:36:53;17.75;;;15.25;;
73954;SDS011;62306;52.516;13.290;2022-08-19T10:39:20;17.02;;;14.52;;
73954;SDS011;62306;52.516;13.290;2022-08-19T10:41:47;19.42;;;15.05;;
73954;SDS011;62306;52.516;13.290;2022-08-19T10:44:15;16.92;;;15.27;;
73954;SDS011;62306;52.516;13.290;2022-08-19T10:46:43;16.65;;;14.82;;
73954;SDS011;62306;52.516;13.290;2022-08-19T10:49:11;18.38;;;14.63;;
73954;SDS011;62306;52.516;13.290;2022-08-19T10:51:39;16.00;;;14.35;;
73954;SDS011;62306;52.516;13.290;2022-08-19T10:54:24;20.88;;;14.70;;
73954;SDS011;62306;52.516;13.290;2022-08-19T10:57:11;16.67;;;14.82;;
73954;SDS011;62306;52.516;13.290;2022-08-19T10:59:39;18.08;;;16.08;;
73954;SDS011;62306;52.516;13.290;2022-08-19T11:02:07;21.70;;;16.58;;
73954;SDS011;62306;52.516;13.290;2022-08-19T11:04:37;21.17;;;15.35;;
73954;SDS011;62306;52.516;13.290;2022-08-19T11:07:05;25.52;;;15.65;;
73954;SDS011;62306;52.516;13.290;2022-08-19T11:09:36;18.35;;;15.23;;
73954;SDS011;62306;52.516;13.290;2022-08-19T11:12:05;20.08;;;15.75;;
73954;SDS011;62306;52.516;13.290;2022-08-19T11:14:33;19.17;;;15.63;;
73954;SDS011;62306;52.516;13.290;2022-08-19T11:17:02;17.25;;;15.20;;
73954;SDS011;62306;52.516;13.290;2022-08-19T11:19:31;15.52;;;13.85;;
73954;SDS011;62306;52.516;13.290;2022-08-19T11:21:59;16.77;;;14.07;;
73954;SDS011;62306;52.516;13.290;2022-08-19T11:24:28;18.25;;;13.82;;
73954;SDS011;62306;52.516;13.290;2022-08-19T11:27:00;15.88;;;14.30;;
73954;SDS011;62306;52.516;13.290;2022-08-19T11:29:29;16.95;;;14.15;;
73954;SDS011;62306;52.516;13.290;2022-08-19T11:31:57;16.50;;;13.70;;
73954;SDS011;62306;52.516;13.290;2022-08-19T11:34:28;16.77;;;14.18;;
73954;SDS011;62306;52.516;13.290;2022-08-19T11:36:56;15.77;;;13.65;;
73954;SDS011;62306;52.516;13.290;2022-08-19T11:39:24;17.00;;;13.68;;
73954;SDS011;62306;52.516;13.290;2022-08-19T11:41:53;14.68;;;13.13;;
73954;SDS011;62306;52.516;13.290;2022-08-19T11:44:20;18.35;;;15.55;;
73954;SDS011;62306;52.516;13.290;2022-08-19T11:46:47;28.70;;;18.38;;
73954;SDS011;62306;52.516;13.290;2022-08-19T11:49:15;17.55;;;13.25;;
73954;SDS011;62306;52.516;13.290;2022-08-19T11:51:45;14.98;;;13.25;;
73954;SDS011;62306;52.516;13.290;2022-08-19T11:54:13;16.08;;;13.23;;
73954;SDS011;62306;52.516;13.290;2022-08-19T11:56:42;14.95;;;12.35;;
73954;SDS011;62306;52.516;13.290;2022-08-19T11:59:10;17.33;;;11.90;;
73954;SDS011;62306;52.516;13.290;2022-08-19T12:01:37;13.77;;;12.32;;
73954;SDS011;62306;52.516;13.290;2022-08-19T12:04:05;15.98;;;12.52;;
73954;SDS011;62306;52.516;13.290;2022-08-19T12:06:33;13.63;;;12.20;;
73954;SDS011;62306;52.516;13.290;2022-08-19T12:09:02;14.55;;;12.02;;
73954;SDS011;62306;52.516;13.290;2022-08-19T12:11:31;12.80;;;10.95;;
73954;SDS011;62306;52.516;13.290;2022-08-19T12:13:59;12.40;;;11.18;;
73954;SDS011;62306;52.516;13.290;2022-08-19T12:16:26;12.63;;;11.32;;
73954;SDS011;62306;52.516;13.290;2022-08-19T12:18:55;12.40;;;11.07;;
73954;SDS011;62306;52.516;13.290;2022-08-19T12:21:28;12.43;;;11.20;;
73954;SDS011;62306;52.516;13.290;2022-08-19T12:23:56;12.85;;;11.35;;
73954;SDS011;62306;52.516;13.290;2022-08-19T12:26:26;14.15;;;11.65;;
73954;SDS011;62306;52.516;13.290;2022-08-19T12:28:54;11.80;;;10.68;;
73954;SDS011;62306;52.516;13.290;2022-08-19T12:31:23;12.05;;;10.85;;
73954;SDS011;62306;52.516;13.290;2022-08-19T12:33:51;12.63;;;10.48;;
73954;SDS011;62306;52.516;13.290;2022-08-19T12:36:18;18.13;;;12.05;;
73954;SDS011;62306;52.516;13.290;2022-08-19T12:38:47;17.73;;;11.38;;
73954;SDS011;62306;52.516;13.290;2022-08-19T12:41:14;13.93;;;10.82;;
73954;SDS011;62306;52.516;13.290;2022-08-19T12:43:44;14.15;;;11.77;;
73954;SDS011;62306;52.516;13.290;2022-08-19T12:46:13;11.60;;;10.40;;
73954;SDS011;62306;52.516;13.290;2022-08-19T12:48:40;14.32;;;12.10;;
73954;SDS011;62306;52.516;13.290;2022-08-19T12:51:08;11.30;;;10.10;;
73954;SDS011;62306;52.516;13.290;2022-08-19T12:53:37;15.48;;;11.20;;
73954;SDS011;62306;52.516;13.290;2022-08-19T12:56:04;18.98;;;10.82;;
73954;SDS011;62306;52.516;13.290;2022-08-19T12:58:32;16.90;;;10.45;;
73954;SDS011;62306;52.516;13.290;2022-08-19T13:01:01;12.02;;;10.82;;
73954;SDS011;62306;52.516;13.290;2022-08-19T13:06:00;12.82;;;11.52;;
73954;SDS011;62306;52.516;13.290;2022-08-19T13:08:27;14.38;;;11.85;;
73954;SDS011;62306;52.516;13.290;2022-08-19T13:10:54;12.57;;;11.20;;
73954;SDS011;62306;52.516;13.290;2022-08-19T13:13:23;12.00;;;10.75;;
73954;SDS011;62306;52.516;13.290;2022-08-19T13:15:51;12.30;;;11.10;;
73954;SDS011;62306;52.516;13.290;2022-08-19T13:18:19;14.60;;;11.93;;
73954;SDS011;62306;52.516;13.290;2022-08-19T13:20:46;13.38;;;11.93;;
73954;SDS011;62306;52.516;13.290;2022-08-19T13:23:13;13.77;;;11.68;;
73954;SDS011;62306;52.516;13.290;2022-08-19T13:25:40;15.13;;;12.55;;
73954;SDS011;62306;52.516;13.290;2022-08-19T13:28:07;13.93;;;11.70;;
73954;SDS011;62306;52.516;13.290;2022-08-19T13:30:34;14.35;;;12.38;;
73954;SDS011;62306;52.516;13.290;2022-08-19T13:33:20;13.82;;;11.95;;
73954;SDS011;62306;52.516;13.290;2022-08-19T13:35:48;15.90;;;12.48;;
73954;SDS011;62306;52.516;13.290;2022-08-19T13:38:16;16.23;;;14.48;;
73954;SDS011;62306;52.516;13.290;2022-08-19T13:40:45;18.35;;;13.98;;
73954;SDS011;62306;52.516;13.290;2022-08-19T13:43:14;14.73;;;11.93;;
73954;SDS011;62306;52.516;13.290;2022-08-19T13:45:42;15.95;;;12.48;;
73954;SDS011;62306;52.516;13.290;2022-08-19T13:48:10;14.02;;;11.52;;
73954;SDS011;62306;52.516;13.290;2022-08-19T13:50:40;14.27;;;12.00;;
73954;SDS011;62306;52.516;13.290;2022-08-19T13:53:08;15.45;;;11.65;;
73954;SDS011;62306;52.516;13.290;2022-08-19T13:55:37;13.63;;;12.23;;
73954;SDS011;62306;52.516;13.290;2022-08-19T13:58:05;14.85;;;11.20;;
73954;SDS011;62306;52.516;13.290;2022-08-19T14:00:33;16.25;;;12.27;;
73954;SDS011;62306;52.516;13.290;2022-08-19T14:03:03;14.05;;;12.52;;
73954;SDS011;62306;52.516;13.290;2022-08-19T14:05:31;14.80;;;11.63;;
73954;SDS011;62306;52.516;13.290;2022-08-19T14:08:00;13.35;;;12.02;;
73954;SDS011;62306;52.516;13.290;2022-08-19T14:10:27;14.70;;;12.55;;
73954;SDS011;62306;52.516;13.290;2022-08-19T14:12:57;14.90;;;11.60;;
73954;SDS011;62306;52.516;13.290;2022-08-19T14:15:26;14.73;;;11.10;;
73954;SDS011;62306;52.516;13.290;2022-08-19T14:17:54;13.05;;;11.57;;
73954;SDS011;62306;52.516;13.290;2022-08-19T14:20:21;12.48;;;11.18;;
73954;SDS011;62306;52.516;13.290;2022-08-19T14:22:49;17.17;;;12.32;;